Caguas, PR

12:32 PM AST en Marzo 03, 2015 (GMT -0400)
HSWHQ | Change Station
CLOSE
Current Station
Estación meteorológica personal
Location: Caguas, CAGUAS
Altura: 272 ft
Estaciones meteorológicas cercanas

Alt 272 ft 18.22 °N, 66.04 °W | Updated 10 minutes ago

Scattered Clouds
Nubes dispersas
79.6 ° F
Sensación térmica 82 ° F
N
4.0
Viento Variable Viento desde Este
Gusts 10.0 mph

Hoy
Alta -- | Baja -- ° F
--% Posibilidad de precipitaciones
Ayer
Alta -- | Baja -- ° F
Precip. -- pul
6:41 AM 6:30 PM
Gibosa creciente, 96% visible
Presión 30.10 pul
Visibilidad 10.0 Millas
Nubes Nubes dispersas 3400 ft
Índice de calor 82 ° F
Punto de rocío 66 ° F
Humedad 63%
Precipitaciones 0.00 pul
Espesor de la nieve No disponible.
UV 8 de una escala de 12
Polen No disponible.
Calidad del aire No disponible.
Flu Activity No disponible.
METAR TJSJ 031556Z 06015KT 10SM SCT034 27/21 A3010 RMK AO2 SLP191 T02720206

More Conditions Fewer Conditions

Presión 30.10 pul
Visibilidad 10.0 Millas
Nubes Nubes dispersas 3400 ft
Índice de calor 82 ° F
Punto de rocío 66 ° F
Humedad 63%
Precipitaciones 0.00 pul
Espesor de la nieve No disponible.
UV 8 de una escala de 12
Polen No disponible.
Calidad del aire No disponible.
Flu Activity No disponible.
METAR TJSJ 031556Z 06015KT 10SM SCT034 27/21 A3010 RMK AO2 SLP191 T02720206

More Conditions Fewer Conditions

10-Day Weather Forecast

Almanac

Astronomía

Mar. 03, 2015 Salida Puesta
Hora real
Crepúsculo civil
Crepúsculo náutico
Crepúsculo astronómico
Luna
Horas de luz
Horas de luz
Tomorrow will be .
, % of the Moon is Illuminated

Extremos de hoy

Máximos del estado Bajos del estado

Community

WunderPhotos

Upload Photos

1,802,164 ¡fotos cargadas!

WunderBlogs® & News

Nearby

Calidad del aire

  Calidad del aire Índice AQ Contaminante
Not available.

Grosos de nieve

Estación Profundido Altura

Actividad de terremotos

Ciudad Distance Mag. Tiempo y dato
Magnitud mínima muestra es 2,5.

Temperaturas de aguas costeras

Lugar Temperatura

Estaciones meteorológicas cercanas